sensor_id;sensor_type;location;lat;lon;timestamp;P1;durP1;ratioP1;P2;durP2;ratioP2
3155;SDS011;1588;50.892;7.082;2023-04-01T00:03:55;2.17;;;1.20;;
3155;SDS011;1588;50.892;7.082;2023-04-01T00:08:58;1.40;;;0.90;;
3155;SDS011;1588;50.892;7.082;2023-04-01T00:14:05;1.50;;;1.00;;
3155;SDS011;1588;50.892;7.082;2023-04-01T00:19:07;2.13;;;0.80;;
3155;SDS011;1588;50.892;7.082;2023-04-01T00:24:09;0.90;;;0.90;;
3155;SDS011;1588;50.892;7.082;2023-04-01T00:29:13;0.70;;;0.70;;
3155;SDS011;1588;50.892;7.082;2023-04-01T00:34:16;2.40;;;0.80;;
3155;SDS011;1588;50.892;7.082;2023-04-01T00:39:21;1.37;;;1.10;;
3155;SDS011;1588;50.892;7.082;2023-04-01T00:44:28;2.07;;;1.00;;
3155;SDS011;1588;50.892;7.082;2023-04-01T00:49:33;0.70;;;0.60;;
3155;SDS011;1588;50.892;7.082;2023-04-01T00:54:38;1.13;;;0.80;;
3155;SDS011;1588;50.892;7.082;2023-04-01T00:59:48;1.00;;;1.00;;
3155;SDS011;1588;50.892;7.082;2023-04-01T01:04:53;1.30;;;1.00;;
3155;SDS011;1588;50.892;7.082;2023-04-01T01:10:01;1.07;;;1.00;;
3155;SDS011;1588;50.892;7.082;2023-04-01T01:15:18;1.27;;;1.17;;
3155;SDS011;1588;50.892;7.082;2023-04-01T01:20:48;3.87;;;0.90;;
3155;SDS011;1588;50.892;7.082;2023-04-01T01:26:09;1.33;;;0.80;;
3155;SDS011;1588;50.892;7.082;2023-04-01T01:31:33;0.80;;;0.60;;
3155;SDS011;1588;50.892;7.082;2023-04-01T01:36:40;1.20;;;0.60;;
3155;SDS011;1588;50.892;7.082;2023-04-01T01:41:48;0.80;;;0.70;;
3155;SDS011;1588;50.892;7.082;2023-04-01T01:46:50;2.00;;;0.90;;
3155;SDS011;1588;50.892;7.082;2023-04-01T01:51:54;1.60;;;1.20;;
3155;SDS011;1588;50.892;7.082;2023-04-01T01:56:59;1.33;;;1.23;;
3155;SDS011;1588;50.892;7.082;2023-04-01T02:02:06;1.23;;;0.90;;
3155;SDS011;1588;50.892;7.082;2023-04-01T02:07:13;0.80;;;0.63;;
3155;SDS011;1588;50.892;7.082;2023-04-01T02:12:21;1.73;;;0.70;;
3155;SDS011;1588;50.892;7.082;2023-04-01T02:17:26;0.80;;;0.70;;
3155;SDS011;1588;50.892;7.082;2023-04-01T02:22:33;1.67;;;0.80;;
3155;SDS011;1588;50.892;7.082;2023-04-01T02:27:39;1.43;;;0.70;;
3155;SDS011;1588;50.892;7.082;2023-04-01T02:32:44;2.30;;;1.23;;
3155;SDS011;1588;50.892;7.082;2023-04-01T02:37:49;1.80;;;1.00;;
3155;SDS011;1588;50.892;7.082;2023-04-01T02:42:56;0.70;;;0.63;;
3155;SDS011;1588;50.892;7.082;2023-04-01T02:47:59;2.80;;;0.60;;
3155;SDS011;1588;50.892;7.082;2023-04-01T02:53:03;1.23;;;0.60;;
3155;SDS011;1588;50.892;7.082;2023-04-01T02:58:06;1.63;;;1.03;;
3155;SDS011;1588;50.892;7.082;2023-04-01T03:03:09;1.10;;;1.00;;
3155;SDS011;1588;50.892;7.082;2023-04-01T03:08:12;2.20;;;1.03;;
3155;SDS011;1588;50.892;7.082;2023-04-01T03:13:15;1.10;;;1.00;;
3155;SDS011;1588;50.892;7.082;2023-04-01T03:18:17;2.90;;;1.00;;
3155;SDS011;1588;50.892;7.082;2023-04-01T03:23:21;0.87;;;0.87;;
3155;SDS011;1588;50.892;7.082;2023-04-01T03:28:24;1.53;;;0.70;;
3155;SDS011;1588;50.892;7.082;2023-04-01T03:33:26;1.73;;;0.90;;
3155;SDS011;1588;50.892;7.082;2023-04-01T03:38:32;1.10;;;0.63;;
3155;SDS011;1588;50.892;7.082;2023-04-01T03:43:34;1.43;;;0.70;;
3155;SDS011;1588;50.892;7.082;2023-04-01T03:48:37;0.70;;;0.60;;
3155;SDS011;1588;50.892;7.082;2023-04-01T03:53:41;1.77;;;0.80;;
3155;SDS011;1588;50.892;7.082;2023-04-01T03:58:43;0.80;;;0.60;;
3155;SDS011;1588;50.892;7.082;2023-04-01T04:03:46;3.50;;;0.80;;
3155;SDS011;1588;50.892;7.082;2023-04-01T04:08:51;1.70;;;0.93;;
3155;SDS011;1588;50.892;7.082;2023-04-01T04:13:56;0.80;;;0.60;;
3155;SDS011;1588;50.892;7.082;2023-04-01T04:18:58;1.20;;;0.63;;
3155;SDS011;1588;50.892;7.082;2023-04-01T04:24:02;2.13;;;0.80;;
3155;SDS011;1588;50.892;7.082;2023-04-01T04:29:05;0.77;;;0.73;;
3155;SDS011;1588;50.892;7.082;2023-04-01T04:34:07;1.67;;;0.97;;
3155;SDS011;1588;50.892;7.082;2023-04-01T04:39:11;0.80;;;0.60;;
3155;SDS011;1588;50.892;7.082;2023-04-01T04:44:14;1.57;;;0.90;;
3155;SDS011;1588;50.892;7.082;2023-04-01T04:49:16;2.13;;;1.07;;
3155;SDS011;1588;50.892;7.082;2023-04-01T04:54:20;4.90;;;0.87;;
3155;SDS011;1588;50.892;7.082;2023-04-01T04:59:25;0.80;;;0.63;;
3155;SDS011;1588;50.892;7.082;2023-04-01T05:04:29;1.30;;;1.20;;
3155;SDS011;1588;50.892;7.082;2023-04-01T05:09:37;0.60;;;0.60;;
3155;SDS011;1588;50.892;7.082;2023-04-01T05:14:39;1.67;;;0.80;;
3155;SDS011;1588;50.892;7.082;2023-04-01T05:19:47;0.77;;;0.77;;
3155;SDS011;1588;50.892;7.082;2023-04-01T05:24:53;4.87;;;1.00;;
3155;SDS011;1588;50.892;7.082;2023-04-01T05:29:56;0.60;;;0.60;;
3155;SDS011;1588;50.892;7.082;2023-04-01T05:34:58;0.70;;;0.70;;
3155;SDS011;1588;50.892;7.082;2023-04-01T05:40:02;1.00;;;0.87;;
3155;SDS011;1588;50.892;7.082;2023-04-01T05:45:09;0.70;;;0.70;;
3155;SDS011;1588;50.892;7.082;2023-04-01T05:50:12;1.30;;;0.60;;
3155;SDS011;1588;50.892;7.082;2023-04-01T05:55:15;1.13;;;1.03;;
3155;SDS011;1588;50.892;7.082;2023-04-01T06:00:18;1.40;;;1.30;;
3155;SDS011;1588;50.892;7.082;2023-04-01T06:05:22;0.83;;;0.83;;
3155;SDS011;1588;50.892;7.082;2023-04-01T06:10:32;5.60;;;1.10;;
3155;SDS011;1588;50.892;7.082;2023-04-01T06:15:43;1.40;;;0.87;;
3155;SDS011;1588;50.892;7.082;2023-04-01T06:20:55;1.20;;;1.10;;
3155;SDS011;1588;50.892;7.082;2023-04-01T06:26:18;2.23;;;1.10;;
3155;SDS011;1588;50.892;7.082;2023-04-01T06:31:38;1.63;;;1.53;;
3155;SDS011;1588;50.892;7.082;2023-04-01T06:36:55;2.60;;;1.60;;
3155;SDS011;1588;50.892;7.082;2023-04-01T06:47:41;1.20;;;1.10;;
3155;SDS011;1588;50.892;7.082;2023-04-01T06:52:54;1.30;;;1.20;;
3155;SDS011;1588;50.892;7.082;2023-04-01T06:58:10;1.60;;;1.50;;
3155;SDS011;1588;50.892;7.082;2023-04-01T07:03:20;4.53;;;1.57;;
3155;SDS011;1588;50.892;7.082;2023-04-01T07:08:29;1.67;;;1.57;;
3155;SDS011;1588;50.892;7.082;2023-04-01T07:13:39;1.97;;;1.87;;
3155;SDS011;1588;50.892;7.082;2023-04-01T07:18:47;1.93;;;1.37;;
3155;SDS011;1588;50.892;7.082;2023-04-01T07:23:54;1.67;;;1.20;;
3155;SDS011;1588;50.892;7.082;2023-04-01T07:29:04;2.20;;;1.40;;
3155;SDS011;1588;50.892;7.082;2023-04-01T07:34:08;1.47;;;1.03;;
3155;SDS011;1588;50.892;7.082;2023-04-01T07:39:25;1.37;;;1.27;;
3155;SDS011;1588;50.892;7.082;2023-04-01T07:44:39;2.30;;;1.13;;
3155;SDS011;1588;50.892;7.082;2023-04-01T07:49:54;1.60;;;1.50;;
3155;SDS011;1588;50.892;7.082;2023-04-01T07:55:08;1.50;;;1.40;;
3155;SDS011;1588;50.892;7.082;2023-04-01T08:00:21;1.80;;;1.70;;
3155;SDS011;1588;50.892;7.082;2023-04-01T08:05:30;1.53;;;1.40;;
3155;SDS011;1588;50.892;7.082;2023-04-01T08:10:43;1.27;;;1.17;;
3155;SDS011;1588;50.892;7.082;2023-04-01T08:15:55;4.37;;;1.63;;
3155;SDS011;1588;50.892;7.082;2023-04-01T08:21:09;3.57;;;1.37;;
3155;SDS011;1588;50.892;7.082;2023-04-01T08:26:17;1.10;;;1.00;;
3155;SDS011;1588;50.892;7.082;2023-04-01T08:31:34;2.60;;;1.37;;
3155;SDS011;1588;50.892;7.082;2023-04-01T08:36:42;1.50;;;1.40;;
3155;SDS011;1588;50.892;7.082;2023-04-01T08:41:55;1.77;;;1.50;;
3155;SDS011;1588;50.892;7.082;2023-04-01T08:47:44;1.50;;;1.40;;
3155;SDS011;1588;50.892;7.082;2023-04-01T08:52:57;4.33;;;1.80;;
3155;SDS011;1588;50.892;7.082;2023-04-01T08:58:08;1.63;;;1.40;;
3155;SDS011;1588;50.892;7.082;2023-04-01T09:03:29;2.60;;;1.50;;
3155;SDS011;1588;50.892;7.082;2023-04-01T09:08:59;1.40;;;1.23;;
3155;SDS011;1588;50.892;7.082;2023-04-01T09:14:22;2.40;;;1.43;;
3155;SDS011;1588;50.892;7.082;2023-04-01T09:19:36;1.60;;;1.50;;
3155;SDS011;1588;50.892;7.082;2023-04-01T09:25:05;3.47;;;1.37;;
3155;SDS011;1588;50.892;7.082;2023-04-01T09:30:38;1.93;;;1.60;;
3155;SDS011;1588;50.892;7.082;2023-04-01T09:36:07;1.30;;;1.20;;
3155;SDS011;1588;50.892;7.082;2023-04-01T09:41:23;2.33;;;1.77;;
3155;SDS011;1588;50.892;7.082;2023-04-01T09:46:35;1.93;;;1.83;;
3155;SDS011;1588;50.892;7.082;2023-04-01T09:51:55;3.10;;;1.70;;
3155;SDS011;1588;50.892;7.082;2023-04-01T09:57:17;1.53;;;1.20;;
3155;SDS011;1588;50.892;7.082;2023-04-01T10:08:17;2.20;;;1.20;;
3155;SDS011;1588;50.892;7.082;2023-04-01T10:14:06;1.83;;;1.60;;
3155;SDS011;1588;50.892;7.082;2023-04-01T10:19:39;1.10;;;1.00;;
3155;SDS011;1588;50.892;7.082;2023-04-01T10:25:04;1.50;;;1.40;;
3155;SDS011;1588;50.892;7.082;2023-04-01T10:36:02;1.43;;;1.33;;
3155;SDS011;1588;50.892;7.082;2023-04-01T10:41:51;1.73;;;1.63;;
3155;SDS011;1588;50.892;7.082;2023-04-01T10:47:17;1.60;;;1.50;;
3155;SDS011;1588;50.892;7.082;2023-04-01T10:53:10;1.60;;;1.50;;
3155;SDS011;1588;50.892;7.082;2023-04-01T10:58:48;1.93;;;1.83;;
3155;SDS011;1588;50.892;7.082;2023-04-01T11:04:33;1.87;;;1.60;;
3155;SDS011;1588;50.892;7.082;2023-04-01T11:10:16;1.50;;;1.40;;
3155;SDS011;1588;50.892;7.082;2023-04-01T11:15:53;1.60;;;1.50;;
3155;SDS011;1588;50.892;7.082;2023-04-01T11:21:35;1.27;;;1.17;;
3155;SDS011;1588;50.892;7.082;2023-04-01T11:26:56;1.70;;;1.50;;
3155;SDS011;1588;50.892;7.082;2023-04-01T11:32:14;1.20;;;1.10;;
3155;SDS011;1588;50.892;7.082;2023-04-01T11:37:37;2.37;;;2.17;;
3155;SDS011;1588;50.892;7.082;2023-04-01T11:42:47;1.63;;;1.53;;
3155;SDS011;1588;50.892;7.082;2023-04-01T11:48:00;1.63;;;1.30;;
3155;SDS011;1588;50.892;7.082;2023-04-01T11:53:18;1.40;;;1.30;;
3155;SDS011;1588;50.892;7.082;2023-04-01T12:09:49;1.50;;;1.40;;
3155;SDS011;1588;50.892;7.082;2023-04-01T12:15:00;1.40;;;1.30;;
3155;SDS011;1588;50.892;7.082;2023-04-01T12:20:24;1.40;;;1.30;;
3155;SDS011;1588;50.892;7.082;2023-04-01T12:25:49;1.67;;;1.47;;
3155;SDS011;1588;50.892;7.082;2023-04-01T12:31:07;1.77;;;1.60;;
3155;SDS011;1588;50.892;7.082;2023-04-01T12:36:35;3.80;;;1.70;;
3155;SDS011;1588;50.892;7.082;2023-04-01T12:41:46;1.57;;;1.43;;
3155;SDS011;1588;50.892;7.082;2023-04-01T12:47:01;4.10;;;1.93;;
3155;SDS011;1588;50.892;7.082;2023-04-01T12:52:19;1.40;;;1.30;;
3155;SDS011;1588;50.892;7.082;2023-04-01T12:57:34;2.10;;;1.63;;
3155;SDS011;1588;50.892;7.082;2023-04-01T13:02:52;1.53;;;1.43;;
3155;SDS011;1588;50.892;7.082;2023-04-01T13:08:12;3.37;;;1.40;;
3155;SDS011;1588;50.892;7.082;2023-04-01T13:13:41;1.67;;;1.57;;
3155;SDS011;1588;50.892;7.082;2023-04-01T13:19:20;1.70;;;1.60;;
3155;SDS011;1588;50.892;7.082;2023-04-01T13:24:30;1.53;;;1.40;;
3155;SDS011;1588;50.892;7.082;2023-04-01T13:29:43;2.70;;;1.97;;
3155;SDS011;1588;50.892;7.082;2023-04-01T13:34:56;2.30;;;1.70;;
3155;SDS011;1588;50.892;7.082;2023-04-01T13:40:20;2.00;;;1.63;;
3155;SDS011;1588;50.892;7.082;2023-04-01T13:45:34;1.50;;;1.40;;
3155;SDS011;1588;50.892;7.082;2023-04-01T13:50:54;2.47;;;1.60;;
3155;SDS011;1588;50.892;7.082;2023-04-01T13:56:16;2.70;;;2.50;;
3155;SDS011;1588;50.892;7.082;2023-04-01T14:01:30;2.10;;;1.80;;
3155;SDS011;1588;50.892;7.082;2023-04-01T14:06:44;1.87;;;1.77;;
3155;SDS011;1588;50.892;7.082;2023-04-01T14:11:56;2.27;;;2.07;;
3155;SDS011;1588;50.892;7.082;2023-04-01T14:17:14;1.70;;;1.60;;
3155;SDS011;1588;50.892;7.082;2023-04-01T14:22:38;2.27;;;2.07;;
3155;SDS011;1588;50.892;7.082;2023-04-01T14:27:48;3.07;;;2.33;;
3155;SDS011;1588;50.892;7.082;2023-04-01T14:33:04;1.67;;;1.57;;
3155;SDS011;1588;50.892;7.082;2023-04-01T14:38:26;2.30;;;1.93;;
3155;SDS011;1588;50.892;7.082;2023-04-01T14:44:05;1.63;;;1.53;;
3155;SDS011;1588;50.892;7.082;2023-04-01T14:49:30;1.33;;;1.23;;
3155;SDS011;1588;50.892;7.082;2023-04-01T14:54:38;1.50;;;1.40;;
3155;SDS011;1588;50.892;7.082;2023-04-01T14:59:53;1.60;;;1.50;;
3155;SDS011;1588;50.892;7.082;2023-04-01T15:05:31;1.33;;;1.23;;
3155;SDS011;1588;50.892;7.082;2023-04-01T15:16:24;4.53;;;1.60;;
3155;SDS011;1588;50.892;7.082;2023-04-01T15:34:31;1.63;;;1.30;;
3155;SDS011;1588;50.892;7.082;2023-04-01T15:39:52;1.50;;;1.40;;
3155;SDS011;1588;50.892;7.082;2023-04-01T15:45:40;2.20;;;2.00;;
3155;SDS011;1588;50.892;7.082;2023-04-01T16:08:37;2.90;;;2.00;;
3155;SDS011;1588;50.892;7.082;2023-04-01T16:13:56;3.83;;;2.03;;
3155;SDS011;1588;50.892;7.082;2023-04-01T16:19:17;5.30;;;2.40;;
3155;SDS011;1588;50.892;7.082;2023-04-01T16:24:41;2.80;;;2.10;;
3155;SDS011;1588;50.892;7.082;2023-04-01T16:30:00;3.93;;;2.33;;
3155;SDS011;1588;50.892;7.082;2023-04-01T16:35:28;2.80;;;2.20;;
3155;SDS011;1588;50.892;7.082;2023-04-01T16:40:37;3.73;;;2.23;;
3155;SDS011;1588;50.892;7.082;2023-04-01T16:45:45;2.43;;;2.13;;
3155;SDS011;1588;50.892;7.082;2023-04-01T16:50:59;2.33;;;2.13;;
3155;SDS011;1588;50.892;7.082;2023-04-01T16:56:07;3.03;;;2.30;;
3155;SDS011;1588;50.892;7.082;2023-04-01T17:01:16;2.80;;;1.90;;
3155;SDS011;1588;50.892;7.082;2023-04-01T17:06:27;3.17;;;2.53;;
3155;SDS011;1588;50.892;7.082;2023-04-01T17:11:34;4.40;;;2.37;;
3155;SDS011;1588;50.892;7.082;2023-04-01T17:16:52;2.17;;;1.97;;
3155;SDS011;1588;50.892;7.082;2023-04-01T17:22:11;2.13;;;1.93;;
3155;SDS011;1588;50.892;7.082;2023-04-01T17:27:25;2.13;;;1.60;;
3155;SDS011;1588;50.892;7.082;2023-04-01T17:32:39;2.10;;;1.77;;
3155;SDS011;1588;50.892;7.082;2023-04-01T17:38:00;2.27;;;2.00;;
3155;SDS011;1588;50.892;7.082;2023-04-01T17:43:12;3.00;;;2.50;;
3155;SDS011;1588;50.892;7.082;2023-04-01T17:48:24;2.70;;;1.90;;
3155;SDS011;1588;50.892;7.082;2023-04-01T17:53:39;3.30;;;3.00;;
3155;SDS011;1588;50.892;7.082;2023-04-01T17:58:50;3.33;;;2.20;;
3155;SDS011;1588;50.892;7.082;2023-04-01T18:04:11;2.60;;;2.20;;
3155;SDS011;1588;50.892;7.082;2023-04-01T18:09:34;3.00;;;2.33;;
3155;SDS011;1588;50.892;7.082;2023-04-01T18:20:25;3.80;;;2.73;;
3155;SDS011;1588;50.892;7.082;2023-04-01T18:25:37;2.77;;;2.17;;
3155;SDS011;1588;50.892;7.082;2023-04-01T18:30:41;5.57;;;2.70;;
3155;SDS011;1588;50.892;7.082;2023-04-01T18:35:47;3.03;;;2.53;;
3155;SDS011;1588;50.892;7.082;2023-04-01T18:41:05;3.70;;;2.90;;
3155;SDS011;1588;50.892;7.082;2023-04-01T18:46:16;4.80;;;2.90;;
3155;SDS011;1588;50.892;7.082;2023-04-01T18:51:24;4.90;;;2.67;;
3155;SDS011;1588;50.892;7.082;2023-04-01T18:56:36;3.93;;;2.50;;
3155;SDS011;1588;50.892;7.082;2023-04-01T19:01:42;2.30;;;2.10;;
3155;SDS011;1588;50.892;7.082;2023-04-01T19:06:50;3.90;;;2.73;;
3155;SDS011;1588;50.892;7.082;2023-04-01T19:12:16;2.07;;;1.87;;
3155;SDS011;1588;50.892;7.082;2023-04-01T19:17:32;2.97;;;2.60;;
3155;SDS011;1588;50.892;7.082;2023-04-01T19:22:53;4.17;;;2.80;;
3155;SDS011;1588;50.892;7.082;2023-04-01T19:28:19;3.50;;;3.20;;
3155;SDS011;1588;50.892;7.082;2023-04-01T19:33:32;5.10;;;3.40;;
3155;SDS011;1588;50.892;7.082;2023-04-01T19:38:50;4.90;;;3.30;;
3155;SDS011;1588;50.892;7.082;2023-04-01T19:44:01;3.37;;;2.40;;
3155;SDS011;1588;50.892;7.082;2023-04-01T19:54:39;4.80;;;3.00;;
3155;SDS011;1588;50.892;7.082;2023-04-01T19:59:49;4.10;;;2.90;;
3155;SDS011;1588;50.892;7.082;2023-04-01T20:04:57;6.47;;;3.23;;
3155;SDS011;1588;50.892;7.082;2023-04-01T20:10:06;5.77;;;3.57;;
3155;SDS011;1588;50.892;7.082;2023-04-01T20:15:22;6.83;;;2.97;;
3155;SDS011;1588;50.892;7.082;2023-04-01T20:20:33;4.00;;;2.80;;
3155;SDS011;1588;50.892;7.082;2023-04-01T20:25:38;8.80;;;3.87;;
3155;SDS011;1588;50.892;7.082;2023-04-01T20:30:51;5.07;;;3.33;;
3155;SDS011;1588;50.892;7.082;2023-04-01T20:36:06;6.00;;;3.83;;
3155;SDS011;1588;50.892;7.082;2023-04-01T20:41:20;8.33;;;4.83;;
3155;SDS011;1588;50.892;7.082;2023-04-01T20:46:29;12.47;;;5.70;;
3155;SDS011;1588;50.892;7.082;2023-04-01T20:51:39;12.50;;;6.73;;
3155;SDS011;1588;50.892;7.082;2023-04-01T20:56:49;11.87;;;6.03;;
3155;SDS011;1588;50.892;7.082;2023-04-01T21:02:01;11.70;;;6.20;;
3155;SDS011;1588;50.892;7.082;2023-04-01T21:07:20;10.93;;;5.23;;
3155;SDS011;1588;50.892;7.082;2023-04-01T21:12:30;10.20;;;5.77;;
3155;SDS011;1588;50.892;7.082;2023-04-01T21:17:48;12.33;;;5.97;;
3155;SDS011;1588;50.892;7.082;2023-04-01T21:23:11;10.03;;;5.07;;
3155;SDS011;1588;50.892;7.082;2023-04-01T21:28:43;7.97;;;5.00;;
3155;SDS011;1588;50.892;7.082;2023-04-01T21:34:04;10.97;;;4.87;;
3155;SDS011;1588;50.892;7.082;2023-04-01T21:39:21;5.60;;;4.03;;
3155;SDS011;1588;50.892;7.082;2023-04-01T21:44:43;7.47;;;3.93;;
3155;SDS011;1588;50.892;7.082;2023-04-01T21:50:09;10.03;;;4.70;;
3155;SDS011;1588;50.892;7.082;2023-04-01T21:55:42;9.47;;;4.30;;
3155;SDS011;1588;50.892;7.082;2023-04-01T22:01:06;7.53;;;4.70;;
3155;SDS011;1588;50.892;7.082;2023-04-01T22:06:24;8.20;;;4.50;;
3155;SDS011;1588;50.892;7.082;2023-04-01T22:11:36;14.67;;;7.07;;
3155;SDS011;1588;50.892;7.082;2023-04-01T22:16:50;8.60;;;4.70;;
3155;SDS011;1588;50.892;7.082;2023-04-01T22:22:15;6.43;;;3.90;;
3155;SDS011;1588;50.892;7.082;2023-04-01T22:27:24;5.07;;;3.80;;
3155;SDS011;1588;50.892;7.082;2023-04-01T22:32:36;6.60;;;4.20;;
3155;SDS011;1588;50.892;7.082;2023-04-01T22:37:47;7.00;;;5.00;;
3155;SDS011;1588;50.892;7.082;2023-04-01T22:42:59;7.60;;;4.73;;
3155;SDS011;1588;50.892;7.082;2023-04-01T22:48:05;6.67;;;4.50;;
3155;SDS011;1588;50.892;7.082;2023-04-01T22:53:19;7.83;;;4.53;;
3155;SDS011;1588;50.892;7.082;2023-04-01T22:58:34;6.73;;;4.87;;
3155;SDS011;1588;50.892;7.082;2023-04-01T23:03:42;6.60;;;4.50;;
3155;SDS011;1588;50.892;7.082;2023-04-01T23:08:51;7.10;;;4.00;;
3155;SDS011;1588;50.892;7.082;2023-04-01T23:19:47;7.07;;;4.27;;
3155;SDS011;1588;50.892;7.082;2023-04-01T23:24:59;4.93;;;3.10;;
3155;SDS011;1588;50.892;7.082;2023-04-01T23:35:51;9.30;;;3.20;;
3155;SDS011;1588;50.892;7.082;2023-04-01T23:40:57;6.50;;;3.90;;
3155;SDS011;1588;50.892;7.082;2023-04-01T23:46:00;9.90;;;4.13;;
3155;SDS011;1588;50.892;7.082;2023-04-01T23:51:08;7.70;;;4.50;;
3155;SDS011;1588;50.892;7.082;2023-04-01T23:56:17;11.43;;;4.03;;
